Goldston, NC (27252)

10:43 PM EDT on September 17, 2014 (GMT -0400)
Gress Weather Station | Change Station
CLOSE
Current Station
Personal Weather Station
Location: Sanford, NC
Elevation: 348 ft
Nearby Weather Stations

Elev 348 ft 35.50 °N, 79.29 °W | Updated 57 seconds ago

Mostly Cloudy
Mostly Cloudy
67.5 °F
Feels Like 67.5 °F
N
0.0
Wind Variable Wind from WSW

Today
High -- | Low -- °F
--% Chance of Precip.
Yesterday
High -- | Low -- °F
Precip. -- in
7:01 AM 7:21 PM
Waning Crescent, 31% visible
Pressure 29.98 in
Visibility 10.0 miles
Clouds Scattered Clouds 2100 ft
Mostly Cloudy 2800 ft
Overcast 3600 ft
Dew Point 67 °F
Humidity 99%
Rainfall 0.01 in
Snow Depth Not available.
UV 0 out of 12
Pollen 6.00 out of 12
Ozone Good
PM2.5 Moderate
Flu Activity Not available.
METAR K5W8 180235Z AUTO 00000KT 10SM SCT021 BKN028 OVC036 19/19 A2998 RMK AO2 T01910185

More Conditions Fewer Conditions

Pressure 29.98 in
Visibility 10.0 miles
Clouds Scattered Clouds 2100 ft
Mostly Cloudy 2800 ft
Overcast 3600 ft
Dew Point 67 °F
Humidity 99%
Rainfall 0.01 in
Snow Depth Not available.
UV 0 out of 12
Pollen 6.00 out of 12
Ozone Good
PM2.5 Moderate
Flu Activity Not available.
METAR K5W8 180235Z AUTO 00000KT 10SM SCT021 BKN028 OVC036 19/19 A2998 RMK AO2 T01910185

More Conditions Fewer Conditions

10-Day Weather Forecast

Almanac

Astronomy

Sep. 17, 2014 Rise Set
Actual Time 7:01 AM EDT 7:21 PM EDT
Civil Twilight 6:36 AM EDT 7:47 PM EDT
Nautical Twilight 6:06 AM EDT 8:16 PM EDT
Astronomical Twilight 5:35 AM EDT 8:47 PM EDT
Moon 1:08 AM EDT (9/17) 3:21 PM EDT (9/17)
Length of Visible Light 13h 10m
Length of Day
12h 19m
Tomorrow will be 2m 13s shorter.
Waning Crescent, 31% of the Moon is Illuminated
Today
Waning Crescent
Sep 24
New
Oct 1
First Quarter
Oct 8
Full
Oct 15
Last Quarter

Today's Extremes

State Highs State Lows

Community

WunderPhotos

Upload Photos

1,754,268 photos uploaded!

Nearby

Air Quality

  Air Quality AQ Index Pollutant
Yesterday Good
OZONE
Yesterday Good
PM2.5
Current Moderate
PM2.5
Current Good
OZONE
Wednesday Good
PM2.5
Wednesday Good
OZONE
Thursday Good
PM2.5
Thursday Good
OZONE
Friday Good
PM2.5
Friday Good
OZONE
Saturday Good
PM2.5
Saturday Good
OZONE

Snow Depth

Station Depth Elevation
No new snow has been reported.

Earthquake Activity

City Distance Mag. Time & Date
No recent earthquake activity has been reported nearby.
Minimum magnitude displayed is 2.5.

Coastal Water Temperatures

Place Temperature
No Stations Reporting

Nearby Weather Stations